createdAt,value
2023-02-03T00:00:43.900Z,102890.66
2023-02-03T00:03:16.541Z,102890.66
2023-02-03T00:05:47.353Z,102888.66
2023-02-03T00:11:19.048Z,102885.56
2023-02-03T00:13:54.609Z,102882.16
2023-02-03T00:16:35.930Z,102885.47
2023-02-03T00:19:30.772Z,102883.53
2023-02-03T00:22:00.334Z,102884.66
2023-02-03T00:24:39.921Z,102879.00
2023-02-03T00:27:12.782Z,102881.16
2023-02-03T00:29:42.833Z,102881.38
2023-02-03T00:32:10.504Z,102883.03
2023-02-03T00:34:43.336Z,102885.84
2023-02-03T00:37:16.158Z,102885.03
2023-02-03T00:39:50.258Z,102879.97
2023-02-03T00:42:26.335Z,102870.22
2023-02-03T00:47:40.023Z,102888.09
2023-02-03T00:50:11.727Z,102888.16
2023-02-03T00:52:40.804Z,102888.16
2023-02-03T00:55:14.797Z,102884.59
2023-02-03T00:57:54.894Z,102889.47
2023-02-03T01:03:19.720Z,102882.56
2023-02-03T01:06:14.056Z,102879.97
2023-02-03T01:08:54.145Z,102895.56
2023-02-03T01:11:40.935Z,102881.56
2023-02-03T01:16:59.462Z,102875.28
2023-02-03T01:22:20.543Z,102877.81
2023-02-03T01:24:54.175Z,102871.88
2023-02-03T01:27:44.565Z,102865.88
2023-02-03T01:30:16.723Z,102863.25
2023-02-03T01:32:47.074Z,102856.28
2023-02-03T01:35:15.001Z,102850.19
2023-02-03T01:37:45.844Z,102859.06
2023-02-03T01:40:13.742Z,102847.66
2023-02-03T01:42:47.312Z,102862.94
2023-02-03T01:45:14.417Z,102867.88
2023-02-03T01:47:55.863Z,102871.41
2023-02-03T01:50:41.455Z,102857.06
2023-02-03T01:53:15.301Z,102863.47
2023-02-03T01:55:50.382Z,102862.66
2023-02-03T01:58:45.546Z,102873.47
2023-02-03T02:01:18.530Z,102859.66
2023-02-03T02:03:56.701Z,102858.75
2023-02-03T02:06:24.274Z,102861.84
2023-02-03T02:08:59.610Z,102851.44
2023-02-03T02:11:39.220Z,102852.59
2023-02-03T02:14:10.598Z,102855.53
2023-02-03T02:17:01.665Z,102858.94
2023-02-03T02:19:54.360Z,102850.63
2023-02-03T02:23:00.109Z,102850.72
2023-02-03T02:25:49.460Z,102842.47
2023-02-03T02:28:35.197Z,102843.66
2023-02-03T02:31:29.396Z,102846.84
2023-02-03T02:35:10.859Z,102854.66
2023-02-03T02:37:59.128Z,102860.13
2023-02-03T02:41:05.659Z,102854.59
2023-02-03T02:43:52.392Z,102854.00
2023-02-03T02:46:40.945Z,102847.25
2023-02-03T02:49:17.092Z,102851.03
2023-02-03T02:51:55.110Z,102844.13
2023-02-03T02:54:29.444Z,102839.56
2023-02-03T02:57:03.588Z,102845.91
2023-02-03T02:59:39.157Z,102846.47
2023-02-03T03:02:14.984Z,102844.75
2023-02-03T03:07:59.308Z,102837.69
2023-02-03T03:10:34.849Z,102831.53
2023-02-03T03:13:06.766Z,102838.31
2023-02-03T03:15:41.642Z,102833.22
2023-02-03T03:18:30.155Z,102830.88
2023-02-03T03:23:57.158Z,102838.75
2023-02-03T03:26:38.276Z,102823.19
2023-02-03T03:29:35.359Z,102826.41
2023-02-03T03:32:39.936Z,102826.41
2023-02-03T03:35:13.621Z,102833.47
2023-02-03T03:38:09.747Z,102824.34
2023-02-03T03:40:44.998Z,102819.44
2023-02-03T03:43:27.157Z,102822.63
2023-02-03T03:46:16.359Z,102831.31
2023-02-03T03:49:14.649Z,102824.81
2023-02-03T03:52:04.529Z,102807.78
2023-02-03T03:54:40.629Z,102818.88
2023-02-03T03:57:31.154Z,102822.56
2023-02-03T04:00:07.655Z,102822.09
2023-02-03T04:02:44.464Z,102825.50
2023-02-03T04:05:17.511Z,102825.31
2023-02-03T04:07:48.621Z,102821.31
2023-02-03T04:10:32.407Z,102822.63
2023-02-03T04:13:02.356Z,102830.63
2023-02-03T04:15:35.611Z,102834.28
2023-02-03T04:18:06.507Z,102829.09
2023-02-03T04:20:42.694Z,102836.06
2023-02-03T04:23:26.430Z,102828.81
2023-02-03T04:25:59.692Z,102833.22
2023-02-03T04:31:11.824Z,102831.69
2023-02-03T04:33:44.567Z,102831.69
2023-02-03T04:36:18.571Z,102831.69
2023-02-03T04:38:49.220Z,102834.22
2023-02-03T04:41:23.527Z,102834.28
2023-02-03T04:44:18.118Z,102831.31
2023-02-03T04:46:50.343Z,102831.06
2023-02-03T04:49:20.608Z,102834.31
2023-02-03T04:51:53.134Z,102832.69
2023-02-03T04:54:30.310Z,102828.19
2023-02-03T04:57:00.746Z,102833.59
2023-02-03T04:59:32.517Z,102836.09
2023-02-03T05:02:05.834Z,102836.91
2023-02-03T05:04:37.643Z,102832.56
2023-02-03T05:07:22.580Z,102838.41
2023-02-03T05:09:49.898Z,102833.03
2023-02-03T05:12:24.786Z,102836.06
2023-02-03T05:15:07.776Z,102832.66
2023-02-03T05:17:40.209Z,102835.59
2023-02-03T05:20:13.189Z,102829.59
2023-02-03T05:22:46.161Z,102833.53
2023-02-03T05:25:30.243Z,102821.78
2023-02-03T05:27:57.677Z,102836.06
2023-02-03T05:30:29.800Z,102833.81
2023-02-03T05:33:04.450Z,102827.91
2023-02-03T05:35:46.764Z,102840.78
2023-02-03T05:38:14.153Z,102845.88
2023-02-03T05:41:08.893Z,102845.25
2023-02-03T05:43:36.888Z,102845.47
2023-02-03T05:46:08.020Z,102854.88
2023-02-03T05:48:36.058Z,102853.00
2023-02-03T05:51:11.600Z,102850.16
2023-02-03T05:53:39.284Z,102855.63
2023-02-03T05:56:08.838Z,102859.03
2023-02-03T05:58:42.170Z,102861.34
2023-02-03T06:01:09.708Z,102868.50
2023-02-03T06:03:41.017Z,102871.63
2023-02-03T06:06:20.461Z,102869.84
2023-02-03T06:08:47.787Z,102874.50
2023-02-03T06:11:24.140Z,102878.97
2023-02-03T06:13:58.866Z,102877.28
2023-02-03T06:16:34.325Z,102872.31
2023-02-03T06:19:08.135Z,102876.16
2023-02-03T06:21:46.751Z,102882.16
2023-02-03T06:24:40.801Z,102894.75
2023-02-03T06:27:11.473Z,102886.19
2023-02-03T06:29:42.416Z,102883.41
2023-02-03T06:32:16.183Z,102887.06
2023-02-03T06:34:43.649Z,102893.19
2023-02-03T06:37:17.565Z,102893.59
2023-02-03T06:40:04.984Z,102905.66
2023-02-03T06:42:40.764Z,102903.34
2023-02-03T06:45:21.511Z,102910.84
2023-02-03T06:48:33.656Z,102910.03
2023-02-03T06:51:31.117Z,102910.84
2023-02-03T06:54:54.716Z,102917.53
2023-02-03T07:00:47.430Z,102921.03
2023-02-03T07:09:42.200Z,102921.63
2023-02-03T07:12:13.632Z,102942.16
2023-02-03T07:14:46.363Z,102926.44
2023-02-03T07:17:26.113Z,102942.78
2023-02-03T07:20:19.743Z,102939.16
2023-02-03T07:23:21.164Z,102952.63
2023-02-03T07:26:26.915Z,102960.09
2023-02-03T07:29:24.908Z,102965.59
2023-02-03T07:32:27.950Z,102960.69
2023-02-03T07:35:26.111Z,102955.50
2023-02-03T07:38:21.847Z,102970.44
2023-02-03T07:41:17.644Z,102974.22
2023-02-03T07:44:24.409Z,102978.47
2023-02-03T07:47:15.393Z,102984.28
2023-02-03T07:49:55.838Z,102980.31
2023-02-03T07:55:43.951Z,102993.25
2023-02-03T07:58:48.230Z,102991.72
2023-02-03T08:01:44.180Z,102997.81
2023-02-03T08:04:24.373Z,102992.63
2023-02-03T08:07:22.917Z,103006.25
2023-02-03T08:10:18.374Z,102997.91
2023-02-03T08:13:08.437Z,103002.81
2023-02-03T08:15:54.229Z,102999.75
2023-02-03T08:19:00.893Z,103003.56
2023-02-03T08:21:57.889Z,103014.22
2023-02-03T08:25:13.196Z,103001.88
2023-02-03T08:28:04.893Z,103000.56
2023-02-03T08:31:01.117Z,103007.59
2023-02-03T08:33:57.244Z,103014.75
2023-02-03T08:39:28.024Z,103012.97
2023-02-03T08:42:24.697Z,103018.34
2023-02-03T08:45:15.322Z,103021.97
2023-02-03T08:47:57.531Z,103019.97
2023-02-03T08:50:49.860Z,103014.94
2023-02-03T08:53:56.234Z,103015.50
2023-02-03T08:56:49.391Z,103017.66
2023-02-03T08:59:44.152Z,103020.44
2023-02-03T09:02:49.374Z,103021.34
2023-02-03T09:05:38.113Z,103015.63
2023-02-03T09:08:45.586Z,103012.41
2023-02-03T09:11:31.506Z,103020.09
2023-02-03T09:14:50.393Z,103019.59
2023-02-03T09:17:54.242Z,103015.03
2023-02-03T09:20:57.421Z,103021.56
2023-02-03T09:24:11.306Z,103024.06
2023-02-03T09:26:48.302Z,103018.41
2023-02-03T09:29:43.937Z,103017.03
2023-02-03T09:35:31.728Z,103015.97
2023-02-03T09:38:04.457Z,103015.59
2023-02-03T09:41:11.609Z,103024.22
2023-02-03T09:47:45.748Z,103012.16
2023-02-03T09:50:39.482Z,103015.84
2023-02-03T09:53:34.043Z,103010.19
2023-02-03T09:56:55.355Z,103013.81
2023-02-03T10:00:01.883Z,103016.28
2023-02-03T10:03:10.036Z,103009.91
2023-02-03T10:06:24.031Z,103016.84
2023-02-03T10:13:05.457Z,103022.09
2023-02-03T10:16:26.261Z,103019.38
2023-02-03T10:19:29.920Z,103023.25
2023-02-03T10:22:27.809Z,103022.28
2023-02-03T10:25:52.611Z,103022.34
2023-02-03T10:28:59.056Z,103020.41
2023-02-03T10:35:06.356Z,103013.44
2023-02-03T10:38:00.131Z,103007.78
2023-02-03T10:41:11.765Z,103001.28
2023-02-03T10:44:08.972Z,102992.94
2023-02-03T10:47:46.007Z,102998.28
2023-02-03T10:50:32.765Z,102995.38
2023-02-03T10:56:38.177Z,102977.53
2023-02-03T10:59:44.763Z,102986.53
2023-02-03T11:02:46.829Z,102981.34
2023-02-03T11:09:04.986Z,102968.66
2023-02-03T11:11:50.601Z,102960.09
2023-02-03T11:14:50.408Z,102959.38
2023-02-03T11:20:54.056Z,102943.78
2023-02-03T11:23:29.016Z,102949.03
2023-02-03T11:25:59.081Z,102939.38
2023-02-03T11:28:42.645Z,102926.31
2023-02-03T11:31:29.391Z,102928.91
2023-02-03T11:34:22.460Z,102922.81
2023-02-03T11:37:09.134Z,102916.59
2023-02-03T11:40:23.545Z,102916.50
2023-02-03T11:43:24.524Z,102912.03
2023-02-03T11:46:15.227Z,102899.47
2023-02-03T11:49:15.183Z,102902.78
2023-02-03T11:52:37.702Z,102905.50
2023-02-03T11:55:46.732Z,102904.25
2023-02-03T11:58:33.348Z,102895.78
2023-02-03T12:01:18.214Z,102899.22
2023-02-03T12:04:29.998Z,102889.25
2023-02-03T12:07:17.718Z,102881.75
2023-02-03T12:10:18.700Z,102871.47
2023-02-03T12:17:13.536Z,102846.06
2023-02-03T12:20:19.941Z,102852.22
2023-02-03T12:23:55.989Z,102834.53
2023-02-03T12:27:00.379Z,102828.53
2023-02-03T12:33:19.872Z,102821.50
2023-02-03T12:35:58.359Z,102818.28
2023-02-03T12:38:52.513Z,102817.53
2023-02-03T12:41:43.421Z,102813.88
2023-02-03T12:45:09.164Z,102813.47
2023-02-03T12:48:24.284Z,102796.44
2023-02-03T12:51:21.682Z,102799.53
2023-02-03T12:54:07.692Z,102792.38
2023-02-03T12:57:18.563Z,102782.66
2023-02-03T13:00:19.903Z,102776.28
2023-02-03T13:07:12.539Z,102772.16
2023-02-03T13:14:35.618Z,102766.50
2023-02-03T13:17:42.070Z,102766.31
2023-02-03T13:21:00.171Z,102770.53
2023-02-03T13:23:56.436Z,102768.84
2023-02-03T13:27:05.416Z,102769.41
2023-02-03T13:30:06.962Z,102764.94
2023-02-03T13:33:32.263Z,102772.19
2023-02-03T13:36:24.532Z,102781.97
2023-02-03T13:39:19.638Z,102771.38
2023-02-03T13:42:29.036Z,102773.13
2023-02-03T13:45:33.452Z,102774.03
2023-02-03T13:48:24.439Z,102770.41
2023-02-03T13:51:22.702Z,102781.84
2023-02-03T13:54:17.383Z,102785.44
2023-02-03T13:56:56.567Z,102791.59
2023-02-03T14:00:02.722Z,102782.66
2023-02-03T14:03:03.757Z,102781.75
2023-02-03T14:09:39.257Z,102783.66
2023-02-03T14:12:46.408Z,102790.72
2023-02-03T14:16:04.538Z,102797.69
2023-02-03T14:18:58.669Z,102787.44
2023-02-03T14:25:15.462Z,102796.16
2023-02-03T14:28:26.084Z,102781.19
2023-02-03T14:31:20.505Z,102792.50
2023-02-03T14:37:25.731Z,102794.06
2023-02-03T14:40:12.661Z,102789.44
2023-02-03T14:43:10.432Z,102789.00
2023-02-03T14:46:00.251Z,102791.53
2023-02-03T14:49:09.519Z,102783.38
2023-02-03T14:52:10.559Z,102792.19
2023-02-03T14:55:31.835Z,102792.19
2023-02-03T14:58:07.645Z,102786.56
2023-02-03T15:00:58.588Z,102787.97
2023-02-03T15:03:37.850Z,102790.56
2023-02-03T15:06:09.703Z,102792.78
2023-02-03T15:08:53.524Z,102787.09
2023-02-03T15:11:51.434Z,102790.06
2023-02-03T15:18:45.089Z,102798.72
2023-02-03T15:21:44.050Z,102808.88
2023-02-03T15:24:40.210Z,102802.72
2023-02-03T15:27:45.867Z,102805.03
2023-02-03T15:31:19.258Z,102815.75
2023-02-03T15:34:45.518Z,102822.16
2023-02-03T15:37:17.973Z,102823.53
2023-02-03T15:40:09.911Z,102820.63
2023-02-03T15:43:28.151Z,102821.88
2023-02-03T15:46:04.710Z,102820.88
2023-02-03T15:49:24.606Z,102823.19
2023-02-03T15:52:34.125Z,102822.59
2023-02-03T15:55:38.184Z,102824.03
2023-02-03T15:58:28.728Z,102813.69
2023-02-03T16:01:08.516Z,102817.00
2023-02-03T16:03:56.555Z,102819.75
2023-02-03T16:10:09.848Z,102802.16
2023-02-03T16:12:43.516Z,102804.63
2023-02-03T16:15:28.190Z,102815.63
2023-02-03T16:18:10.963Z,102809.44
2023-02-03T16:21:00.738Z,102808.78
2023-02-03T16:23:37.118Z,102812.41
2023-02-03T16:26:41.237Z,102810.00
2023-02-03T16:29:45.125Z,102803.38
2023-02-03T16:33:11.419Z,102804.34
2023-02-03T16:36:16.750Z,102806.28
2023-02-03T16:39:34.725Z,102806.19
2023-02-03T16:42:37.493Z,102804.66
2023-02-03T16:45:44.972Z,102811.03
2023-02-03T16:48:54.394Z,102806.63
2023-02-03T16:52:03.628Z,102812.19
2023-02-03T16:54:42.160Z,102815.09
2023-02-03T16:57:34.993Z,102822.19
2023-02-03T17:00:16.097Z,102821.28
2023-02-03T17:02:47.622Z,102821.47
2023-02-03T17:05:21.758Z,102826.16
2023-02-03T17:11:23.809Z,102835.75
2023-02-03T17:14:07.309Z,102838.41
2023-02-03T17:16:34.786Z,102841.72
2023-02-03T17:19:29.620Z,102846.94
2023-02-03T17:22:13.210Z,102858.28
2023-02-03T17:24:45.728Z,102856.06
2023-02-03T17:27:18.844Z,102865.41
2023-02-03T17:33:27.746Z,102858.69
2023-02-03T17:56:29.311Z,102867.84
2023-02-03T17:59:24.127Z,102871.66
2023-02-03T18:01:59.689Z,102867.13
2023-02-03T18:04:45.389Z,102868.63
2023-02-03T18:07:31.147Z,102866.91
2023-02-03T18:10:06.112Z,102864.16
2023-02-03T18:12:39.755Z,102861.19
2023-02-03T18:20:51.788Z,102864.09
2023-02-03T18:23:22.988Z,102858.66
2023-02-03T18:25:56.010Z,102860.13
2023-02-03T18:28:31.691Z,102859.44
2023-02-03T18:31:24.152Z,102864.91
2023-02-03T18:34:13.059Z,102873.31
2023-02-03T18:36:55.011Z,102869.03
2023-02-03T18:39:32.286Z,102869.56
2023-02-03T18:42:03.509Z,102860.78
2023-02-03T18:44:35.213Z,102862.34
2023-02-03T18:47:15.288Z,102870.19
2023-02-03T18:52:46.658Z,102868.13
2023-02-03T18:55:19.703Z,102868.28
2023-02-03T18:57:55.831Z,102870.19
2023-02-03T19:00:36.834Z,102869.81
2023-02-03T19:03:04.675Z,102877.97
2023-02-03T19:11:46.652Z,102889.72
2023-02-03T19:14:38.747Z,102887.94
2023-02-03T19:17:33.248Z,102889.63
2023-02-03T19:20:13.882Z,102908.22
2023-02-03T19:22:50.852Z,102910.34
2023-02-03T19:25:36.820Z,102918.00
2023-02-03T19:28:40.561Z,102917.50
2023-02-03T19:31:23.679Z,102918.69
2023-02-03T19:34:07.422Z,102918.69
2023-02-03T19:36:53.009Z,102922.91
2023-02-03T19:42:25.222Z,102912.31
2023-02-03T19:45:24.156Z,102921.81
2023-02-03T19:48:04.454Z,102921.00
2023-02-03T19:50:46.693Z,102919.44
2023-02-03T19:53:44.091Z,102914.25
2023-02-03T19:56:35.866Z,102926.50
2023-02-03T19:59:21.984Z,102929.81
2023-02-03T20:02:27.116Z,102928.16
2023-02-03T20:05:00.807Z,102917.47
2023-02-03T20:07:48.553Z,102924.41
2023-02-03T20:10:31.072Z,102919.78
2023-02-03T20:16:20.107Z,102912.22
2023-02-03T20:19:12.272Z,102910.56
2023-02-03T20:21:54.547Z,102909.53
2023-02-03T20:24:40.153Z,102916.97
2023-02-03T20:27:32.464Z,102914.72
2023-02-03T20:30:23.456Z,102922.66
2023-02-03T20:33:11.659Z,102919.22
2023-02-03T20:35:45.316Z,102923.50
2023-02-03T20:38:27.483Z,102919.22
2023-02-03T20:41:15.044Z,102911.38
2023-02-03T20:44:00.413Z,102917.38
2023-02-03T20:46:42.289Z,102918.06
2023-02-03T20:49:32.477Z,102910.22
2023-02-03T20:52:12.078Z,102913.94
2023-02-03T20:55:13.022Z,102907.69
2023-02-03T20:58:00.673Z,102898.81
2023-02-03T21:01:05.989Z,102898.31
2023-02-03T21:04:03.242Z,102894.88
2023-02-03T21:06:34.648Z,102900.88
2023-02-03T21:09:37.900Z,102904.19
2023-02-03T21:12:17.141Z,102898.84
2023-02-03T21:14:53.300Z,102901.16
2023-02-03T21:17:34.482Z,102892.31
2023-02-03T21:20:16.757Z,102898.25
2023-02-03T21:23:14.551Z,102892.91
2023-02-03T21:25:51.748Z,102891.06
2023-02-03T21:28:29.450Z,102896.16
2023-02-03T21:31:05.296Z,102888.84
2023-02-03T21:33:54.655Z,102890.13
2023-02-03T21:37:05.835Z,102889.88
2023-02-03T21:39:48.989Z,102887.25
2023-02-03T21:42:42.481Z,102881.72
2023-02-03T21:45:20.154Z,102884.22
2023-02-03T21:47:55.211Z,102878.75
2023-02-03T21:50:35.292Z,102878.69
2023-02-03T21:53:35.183Z,102871.28
2023-02-03T21:56:43.408Z,102866.59
2023-02-03T21:59:47.360Z,102863.13
2023-02-03T22:03:13.887Z,102857.88
2023-02-03T22:05:55.257Z,102861.25
2023-02-03T22:08:40.664Z,102860.13
2023-02-03T22:14:00.823Z,102862.47
2023-02-03T22:16:33.388Z,102853.44
2023-02-03T22:19:09.238Z,102853.28
2023-02-03T22:22:21.587Z,102842.09
2023-02-03T22:24:54.662Z,102841.34
2023-02-03T22:27:26.190Z,102846.44
2023-02-03T22:29:59.143Z,102836.81
2023-02-03T22:32:56.854Z,102833.31
2023-02-03T22:35:36.213Z,102837.47
2023-02-03T22:38:22.371Z,102840.38
2023-02-03T22:41:21.158Z,102824.81
2023-02-03T22:44:23.602Z,102828.31
2023-02-03T22:47:20.926Z,102817.75
2023-02-03T22:54:05.702Z,102819.53
2023-02-03T22:57:19.755Z,102807.31
2023-02-03T23:06:37.605Z,102804.56
2023-02-03T23:09:39.636Z,102797.53
2023-02-03T23:12:39.479Z,102790.53
2023-02-03T23:15:20.379Z,102794.66
2023-02-03T23:18:12.385Z,102791.22
2023-02-03T23:21:19.596Z,102790.31
2023-02-03T23:24:11.608Z,102792.72
2023-02-03T23:26:57.114Z,102803.28
2023-02-03T23:29:47.193Z,102798.91
2023-02-03T23:33:01.473Z,102797.78
2023-02-03T23:35:50.553Z,102783.69
2023-02-03T23:41:47.775Z,102791.06
2023-02-03T23:44:27.106Z,102788.09
2023-02-03T23:47:11.961Z,102785.41
2023-02-03T23:49:59.525Z,102781.03
2023-02-03T23:52:41.732Z,102783.47
2023-02-03T23:55:25.958Z,102778.94
2023-02-03T23:58:11.820Z,102773.50
